KBFL/BFL METAR and TAF weather

Enter ICAO airport designator
Station Type Date Time Source
KBFL METAR 2019/08/25 13:54 UTC NOAA

KBFL 251354Z 13003KT 10SM CLR 25/16 A2997 RMK AO2 SLP143 T02500156 $


Station Type Date Time Source
KBFL Decoded METAR 2019/08/25 13:54 UTC NOAA

Station name not available
Aug 25, 2019 - 09:54 AM EDT / 2019.08.25 1354 UTC
Wind: from the SE (130 degrees) at 3 MPH (3 KT):0
Visibility: 10 mile(s):0
Sky conditions: clear
Temperature: 77.0 F (25.0 C)
Dew Point: 60.1 F (15.6 C)
Relative Humidity: 55%
Pressure (altimeter): 29.97 in. Hg (1014 hPa)
ob: KBFL 251354Z 13003KT 10SM CLR 25/16 A2997 RMK AO2 SLP143 T02500156
cycle: 14

Station Type Date Time Source
KBFL TAF 2019/08/25 12:21 UTC NOAA

TAF KBFL 251120Z 2512/2612 VRB06KT P6SM SKC

Example: see airport list